createdAt,value
2023-04-16T00:06:18.778Z,6.07
2023-04-16T00:16:21.414Z,6.03
2023-04-16T00:26:24.076Z,5.87
2023-04-16T00:36:27.946Z,5.78
2023-04-16T00:46:31.357Z,5.74
2023-04-16T00:56:35.722Z,5.53
2023-04-16T01:06:38.486Z,5.64
2023-04-16T01:16:41.036Z,5.66
2023-04-16T01:26:43.627Z,5.69
2023-04-16T01:36:46.157Z,5.59
2023-04-16T01:46:48.930Z,5.64
2023-04-16T01:56:51.450Z,5.76
2023-04-16T02:06:53.957Z,5.81
2023-04-16T02:16:56.659Z,5.82
2023-04-16T02:27:12.421Z,5.85
2023-04-16T02:37:16.037Z,5.79
2023-04-16T02:47:19.018Z,5.66
2023-04-16T02:57:21.525Z,5.57
2023-04-16T03:07:24.214Z,5.48
2023-04-16T03:17:26.700Z,5.45
2023-04-16T03:27:29.266Z,5.48
2023-04-16T03:37:32.057Z,5.46
2023-04-16T03:47:34.894Z,5.34
2023-04-16T03:57:39.417Z,5.23
2023-04-16T04:07:46.490Z,5.34
2023-04-16T04:17:50.396Z,5.41
2023-04-16T04:27:53.425Z,5.24
2023-04-16T04:37:56.303Z,5.49
2023-04-16T04:47:58.957Z,5.52
2023-04-16T04:58:01.581Z,5.56
2023-04-16T05:08:04.914Z,5.63
2023-04-16T05:18:07.420Z,5.92
2023-04-16T05:28:10.604Z,6.03
2023-04-16T05:38:13.215Z,6.17
2023-04-16T05:48:15.810Z,6.13
2023-04-16T05:58:18.461Z,6.21
2023-04-16T06:08:21.152Z,6.39
2023-04-16T06:18:23.810Z,6.40
2023-04-16T06:28:26.414Z,6.38
2023-04-16T06:38:28.997Z,6.57
2023-04-16T06:48:31.819Z,6.73
2023-04-16T06:58:34.339Z,6.78
2023-04-16T07:08:36.841Z,6.88
2023-04-16T07:18:39.598Z,7.19
2023-04-16T07:28:42.329Z,7.31
2023-04-16T07:38:44.989Z,7.39
2023-04-16T07:48:47.768Z,7.58
2023-04-16T07:58:50.378Z,7.87
2023-04-16T08:08:52.940Z,7.79
2023-04-16T08:18:55.758Z,8.03
2023-04-16T08:28:58.668Z,8.21
2023-04-16T08:39:01.191Z,8.55
2023-04-16T08:49:08.637Z,8.67
2023-04-16T08:59:11.557Z,8.85
2023-04-16T09:09:16.292Z,8.75
2023-04-16T09:19:18.818Z,9.10
2023-04-16T09:29:38.797Z,9.20
2023-04-16T09:39:41.855Z,9.38
2023-04-16T09:49:44.927Z,9.30
2023-04-16T09:59:48.410Z,9.70
2023-04-16T10:09:52.685Z,9.92
2023-04-16T10:19:56.146Z,9.96
2023-04-16T10:29:59.684Z,10.24
2023-04-16T10:40:22.634Z,10.25
2023-04-16T10:50:25.550Z,10.19
2023-04-16T11:00:29.266Z,10.04
2023-04-16T11:10:39.444Z,9.86
2023-04-16T11:20:42.008Z,9.78
2023-04-16T11:30:45.053Z,9.53
2023-04-16T11:40:49.988Z,9.40
2023-04-16T11:50:59.157Z,9.42
2023-04-16T12:01:02.300Z,9.17
2023-04-16T12:11:05.125Z,9.25
2023-04-16T12:21:08.328Z,9.36
2023-04-16T12:31:11.249Z,9.44
2023-04-16T12:41:13.786Z,9.21
2023-04-16T12:51:16.261Z,9.18
2023-04-16T13:01:19.880Z,9.24
2023-04-16T13:11:22.533Z,9.42
2023-04-16T13:21:25.158Z,9.85
2023-04-16T13:31:27.807Z,10.34
2023-04-16T13:41:30.732Z,10.93
2023-04-16T13:51:33.783Z,11.05
2023-04-16T14:01:36.353Z,11.11
2023-04-16T14:11:38.826Z,11.31
2023-04-16T14:21:41.528Z,11.66
2023-04-16T14:31:44.055Z,11.82
2023-04-16T14:41:46.610Z,11.00
2023-04-16T14:51:49.319Z,10.62
2023-04-16T15:01:52.857Z,10.38
2023-04-16T15:11:56.916Z,10.11
2023-04-16T15:21:59.557Z,9.91
2023-04-16T15:32:02.316Z,9.90
2023-04-16T15:42:07.429Z,9.91
2023-04-16T15:52:11.972Z,9.89
2023-04-16T16:02:14.629Z,9.84
2023-04-16T16:12:17.424Z,9.71
2023-04-16T16:22:20.806Z,9.67
2023-04-16T16:32:23.755Z,9.56
2023-04-16T16:42:26.706Z,9.51
2023-04-16T16:52:29.537Z,9.34
2023-04-16T17:02:32.410Z,9.32
2023-04-16T17:12:35.674Z,9.28
2023-04-16T17:22:40.110Z,9.19
2023-04-16T17:32:42.721Z,9.05
2023-04-16T17:42:45.766Z,8.91
2023-04-16T17:52:48.796Z,8.87
2023-04-16T18:02:52.540Z,8.85
2023-04-16T18:12:55.520Z,8.81
2023-04-16T18:22:58.271Z,8.65
2023-04-16T18:33:26.322Z,8.57
2023-04-16T18:43:24.434Z,8.64
2023-04-16T18:53:28.580Z,8.62
2023-04-16T19:03:33.494Z,8.65
2023-04-16T19:13:38.127Z,8.63
2023-04-16T19:23:41.584Z,8.64
2023-04-16T19:33:45.498Z,8.63
2023-04-16T19:43:47.915Z,8.57
2023-04-16T19:53:50.889Z,8.57
2023-04-16T20:03:54.722Z,8.47
2023-04-16T20:14:00.351Z,8.45
2023-04-16T20:24:03.437Z,8.31
2023-04-16T20:34:05.964Z,8.20
2023-04-16T20:44:10.149Z,8.13
2023-04-16T20:54:13.051Z,8.09
2023-04-16T21:04:16.263Z,8.12
2023-04-16T21:14:18.864Z,8.01
2023-04-16T21:24:21.323Z,8.11
2023-04-16T21:34:23.913Z,7.98
2023-04-16T21:44:26.396Z,7.92
2023-04-16T21:54:28.928Z,7.85
2023-04-16T22:04:38.724Z,7.85
2023-04-16T22:14:49.225Z,7.92
2023-04-16T22:25:02.274Z,8.04
2023-04-16T22:35:05.348Z,8.12
2023-04-16T22:45:08.482Z,8.05
2023-04-16T22:55:10.983Z,7.92
2023-04-16T23:05:13.573Z,7.87
2023-04-16T23:15:16.299Z,7.67
2023-04-16T23:25:18.872Z,7.59
2023-04-16T23:35:22.954Z,7.57
2023-04-16T23:45:25.693Z,7.39
2023-04-16T23:55:28.426Z,7.21
